This is the latest recevied weather packets stored in our database for station/object DO7ZT-13. If no packets are shown the sender has not sent any weather packets the latest 10 day(s).
| Time | Temp. | Humidity | Pressure | Rain* | Wind** | Luminosity | Snow |
|---|---|---|---|---|---|---|---|
| 1777751415 | 12.22° C | 54% | 1018 hPa | 0 mm | 0.89 m/s, 132° | - | - |
| 1777751103 | 12.78° C | 54% | 1018.1 hPa | 0 mm | 0.45 m/s, 150° | - | - |
| 1777750815 | 12.78° C | 48% | 1018.1 hPa | 0 mm | 0.45 m/s, 198° | - | - |
| 1777750502 | 12.22° C | 55% | 1018.1 hPa | 0 mm | 0.45 m/s, 134° | - | - |
| 1777750215 | 12.78° C | 54% | 1018.1 hPa | 0 mm | 0.45 m/s, 134° | - | - |
| 1777749902 | 12.22° C | 52% | 1018.1 hPa | 0 mm | 0.45 m/s, 138° | - | - |
| 1777749615 | 12.22° C | 58% | 1018.1 hPa | 0 mm | 0.45 m/s, 144° | - | - |
| 1777749302 | 12.22° C | 59% | 1018 hPa | 0 mm | 0.45 m/s, 144° | - | - |
| 1777749015 | 12.22° C | 58% | 1018 hPa | 0 mm | 0.45 m/s, 144° | - | - |
| 1777748727 | 12.22° C | 60% | 1018 hPa | 0 mm | 0.45 m/s, 144° | - | - |
| 1777748415 | 12.22° C | 60% | 1018.1 hPa | 0 mm | 0.45 m/s, 132° | - | - |
| 1777748102 | 12.78° C | 59% | 1018.1 hPa | 0 mm | 0.45 m/s, 132° | - | - |
| 1777747815 | 12.78° C | 57% | 1018.1 hPa | 0 mm | 0.45 m/s, 132° | - | - |
| 1777747502 | 12.78° C | 60% | 1018.1 hPa | 0 mm | 0.45 m/s, 132° | - | - |
| 1777747227 | 12.78° C | 61% | 1018.1 hPa | 0 mm | 0.45 m/s, 132° | - | - |
| 1777746915 | 13.89° C | 57% | 1018.1 hPa | 0 mm | 0.45 m/s, 132° | - | - |
| 1777746627 | 13.89° C | 56% | 1018 hPa | 0 mm | 0.45 m/s, 120° | - | - |
| 1777746314 | 15° C | 52% | 1018 hPa | 0 mm | 0.89 m/s, 140° | - | - |
| 1777746027 | 15° C | 54% | 1018 hPa | 0 mm | 0.45 m/s, 138° | - | - |
| 1777745715 | 15° C | 53% | 1017.9 hPa | 0 mm | 0.45 m/s, 144° | - | - |
| 1777745427 | 16.11° C | 51% | 1017.9 hPa | 0 mm | 0.89 m/s, 139° | - | - |
| 1777745114 | 17.22° C | 48% | 1017.9 hPa | 0 mm | 0.45 m/s, 150° | - | - |
| 1777744827 | 17.78° C | 42% | 1017.9 hPa | 0 mm | 0 m/s | - | - |
| 1777744514 | 18.89° C | 39% | 1017.9 hPa | 0 mm | 0.45 m/s, 145° | - | - |
| 1777744228 | 20° C | 37% | 1017.9 hPa | 0 mm | 0.45 m/s, 150° | - | - |
* Rain latest hour (hover to see other rain measurements)
** Current wind speed in m/s (hover to see current wind gust speed)